Airfield :
LOGIN :

Register | Disclaimer

   EN    FR    IT 

 










Legend :    VFR   Marginal VFR   IFR   Intensive IFR   Very Intensive IFR
Visi :
Ceiling :
>= 8 km
>= 3000ft
5 to 8 km
1000 to 3000 ft
1500m to 5 km
500 to 1000 ft
800 to 1500m
200 to 500 ft
< 800m
< 200 ft
Symbols :   Thunderstorms  Fog  Heavy snow  Heavy precipitations  Wind > 20 kt
SIGMETs :     Misc.  Thunderstorms  Icing  Turbulence  Mountain Waves  Volcanic Ashes






- Airport Elevation : 1890 ft
- IATA code : MEK


GMFM - Bassatine

CURRENT METAR :
  • 292200Z 18005KT CAVOK 15/08 Q1022 NOSIG

EXPIRED METARs :
  • 292100Z 18004KT CAVOK 15/08 Q1022 NOSIG
  • 292000Z 16003KT 120V190 CAVOK 16/08 Q1022 NOSIG

TAF TAF GMFM
Valid from the 29 at 18:00 until the 31 at 00:00 UTC


291700Z 2918/3024 04004KT CAVOK
BECMG 2920/2924 32010KT



MET'MAP, your aeronautical weather chart ! - Copyright ORBIFLY December 2007 - Disclaimer

ORBIFLY MET'MAP TEAM :

Programming & Development : Alexandra Zaïnal
Concept & original design : Baudouin d'Aumeries
Assistance for programming : Marc-Olivier Méhu
Technical & hardware support : Manuel Goepfert

Contact : metmap@orbifly.com




SOURCES & CREDITS :

   NOAA